createdAt,value
2022-10-02T00:00:05.491Z,13.10
2022-10-02T00:03:05.476Z,13.15
2022-10-02T00:05:34.584Z,13.24
2022-10-02T00:08:04.875Z,13.19
2022-10-02T00:10:55.339Z,13.25
2022-10-02T00:13:45.763Z,12.94
2022-10-02T00:16:43.663Z,13.19
2022-10-02T00:19:14.285Z,13.16
2022-10-02T00:22:04.867Z,12.79
2022-10-02T00:25:18.317Z,13.11
2022-10-02T00:27:54.625Z,13.06
2022-10-02T00:30:21.096Z,13.13
2022-10-02T00:32:56.868Z,13.08
2022-10-02T00:35:41.078Z,13.12
2022-10-02T00:38:21.024Z,13.00
2022-10-02T00:41:13.486Z,13.07
2022-10-02T00:44:18.675Z,13.07
2022-10-02T00:47:02.687Z,13.00
2022-10-02T00:49:41.850Z,12.94
2022-10-02T00:52:36.372Z,13.04
2022-10-02T00:55:22.744Z,13.03
2022-10-02T00:58:13.651Z,12.94
2022-10-02T01:00:47.817Z,12.62
2022-10-02T01:03:34.270Z,12.99
2022-10-02T01:06:00.723Z,12.68
2022-10-02T01:08:28.167Z,12.69
2022-10-02T01:10:54.716Z,13.03
2022-10-02T01:13:21.639Z,12.99
2022-10-02T01:15:54.947Z,13.00
2022-10-02T01:18:22.302Z,13.00
2022-10-02T01:20:51.373Z,13.04
2022-10-02T01:23:17.689Z,13.06
2022-10-02T01:25:44.203Z,13.04
2022-10-02T01:28:11.066Z,13.05
2022-10-02T01:30:40.925Z,13.00
2022-10-02T01:33:07.860Z,12.76
2022-10-02T01:35:37.674Z,13.11
2022-10-02T01:38:08.684Z,12.97
2022-10-02T01:40:37.613Z,13.14
2022-10-02T01:43:08.693Z,12.98
2022-10-02T01:45:47.840Z,12.88
2022-10-02T01:48:26.069Z,13.23
2022-10-02T01:51:46.811Z,13.32
2022-10-02T01:54:33.484Z,13.33
2022-10-02T01:57:44.693Z,13.26
2022-10-02T02:00:22.183Z,12.97
2022-10-02T02:03:13.883Z,13.29
2022-10-02T02:06:26.913Z,13.27
2022-10-02T02:09:30.907Z,13.22
2022-10-02T02:12:23.474Z,13.10
2022-10-02T02:15:11.500Z,13.00
2022-10-02T02:17:50.632Z,13.07
2022-10-02T02:20:25.606Z,12.79
2022-10-02T02:22:54.125Z,13.20
2022-10-02T02:25:25.219Z,13.14
2022-10-02T02:27:57.193Z,13.18
2022-10-02T02:30:24.927Z,13.17
2022-10-02T02:32:56.780Z,12.86
2022-10-02T02:35:35.552Z,12.81
2022-10-02T02:38:06.383Z,13.12
2022-10-02T02:40:39.364Z,13.19
2022-10-02T02:43:15.156Z,12.88
2022-10-02T02:45:50.741Z,13.06
2022-10-02T02:48:25.313Z,13.16
2022-10-02T02:51:00.877Z,13.29
2022-10-02T02:53:37.627Z,13.33
2022-10-02T02:56:08.799Z,13.07
2022-10-02T02:58:43.703Z,13.31
2022-10-02T03:01:10.575Z,13.32
2022-10-02T03:03:37.016Z,13.34
2022-10-02T03:06:23.094Z,13.36
2022-10-02T03:08:52.379Z,12.99
2022-10-02T03:11:33.624Z,13.37
2022-10-02T03:14:18.892Z,13.34
2022-10-02T03:16:54.168Z,13.38
2022-10-02T03:19:41.872Z,13.53
2022-10-02T03:22:24.565Z,13.22
2022-10-02T03:24:53.668Z,13.36
2022-10-02T03:27:35.793Z,12.77
2022-10-02T03:30:04.237Z,13.15
2022-10-02T03:32:32.368Z,12.90
2022-10-02T03:35:00.254Z,12.92
2022-10-02T03:37:28.305Z,13.33
2022-10-02T03:39:58.214Z,13.33
2022-10-02T03:42:26.906Z,13.23
2022-10-02T03:44:53.342Z,13.26
2022-10-02T03:47:19.767Z,13.20
2022-10-02T03:49:46.195Z,13.29
2022-10-02T03:52:17.906Z,12.93
2022-10-02T03:54:45.004Z,13.26
2022-10-02T03:57:33.451Z,13.10
2022-10-02T04:00:11.861Z,13.17
2022-10-02T04:03:06.431Z,13.16
2022-10-02T04:05:47.775Z,12.97
2022-10-02T04:08:33.035Z,12.71
2022-10-02T04:11:05.642Z,13.10
2022-10-02T04:13:42.898Z,13.00
2022-10-02T04:16:21.572Z,13.07
2022-10-02T04:19:01.716Z,13.00
2022-10-02T04:21:53.821Z,12.83
2022-10-02T04:24:47.362Z,12.88
2022-10-02T04:27:28.950Z,12.77
2022-10-02T04:30:00.061Z,12.41
2022-10-02T04:32:29.900Z,12.69
2022-10-02T04:34:57.667Z,12.64
2022-10-02T04:37:31.991Z,12.70
2022-10-02T04:40:32.456Z,12.77
2022-10-02T04:43:31.564Z,12.80
2022-10-02T04:46:14.144Z,12.75
2022-10-02T04:49:01.717Z,12.69
2022-10-02T04:51:54.392Z,12.73
2022-10-02T04:54:51.485Z,12.75
2022-10-02T04:57:48.916Z,12.83
2022-10-02T05:00:25.194Z,12.75
2022-10-02T05:03:30.266Z,12.75
2022-10-02T05:06:08.568Z,12.96
2022-10-02T05:08:53.118Z,13.03
2022-10-02T05:11:47.494Z,13.01
2022-10-02T05:15:02.142Z,13.00
2022-10-02T05:17:44.954Z,12.74
2022-10-02T05:20:36.157Z,13.02
2022-10-02T05:23:26.668Z,12.95
2022-10-02T05:26:05.571Z,13.09
2022-10-02T05:28:43.459Z,12.97
2022-10-02T05:31:09.877Z,12.65
2022-10-02T05:33:54.899Z,12.91
2022-10-02T05:36:39.733Z,12.95
2022-10-02T05:39:09.260Z,12.98
2022-10-02T05:41:53.792Z,12.97
2022-10-02T05:44:34.052Z,13.06
2022-10-02T05:47:25.741Z,13.14
2022-10-02T05:49:55.683Z,12.97
2022-10-02T05:52:34.414Z,13.07
2022-10-02T05:55:21.062Z,13.00
2022-10-02T05:58:00.867Z,13.09
2022-10-02T06:00:48.800Z,13.17
2022-10-02T06:03:24.520Z,12.74
2022-10-02T06:05:56.728Z,13.24
2022-10-02T06:08:42.393Z,13.20
2022-10-02T06:11:15.782Z,13.14
2022-10-02T06:14:20.237Z,13.12
2022-10-02T06:17:10.040Z,13.17
2022-10-02T06:19:48.779Z,13.21
2022-10-02T06:22:19.605Z,12.91
2022-10-02T06:25:04.300Z,13.25
2022-10-02T06:27:41.953Z,12.95
2022-10-02T06:30:14.563Z,13.12
2022-10-02T06:32:46.395Z,13.28
2022-10-02T06:35:15.227Z,13.22
2022-10-02T06:38:00.492Z,13.23
2022-10-02T06:40:30.079Z,13.16
2022-10-02T06:43:11.038Z,13.14
2022-10-02T06:45:46.509Z,13.14
2022-10-02T06:48:24.801Z,13.05
2022-10-02T06:50:57.993Z,13.27
2022-10-02T06:53:27.386Z,13.38
2022-10-02T06:56:08.152Z,13.21
2022-10-02T06:58:47.523Z,13.27
2022-10-02T07:01:41.656Z,13.19
2022-10-02T07:04:32.581Z,13.18
2022-10-02T07:07:20.986Z,13.30
2022-10-02T07:10:00.908Z,13.22
2022-10-02T07:12:44.701Z,12.85
2022-10-02T07:15:24.647Z,12.97
2022-10-02T07:17:56.511Z,13.19
2022-10-02T07:20:32.978Z,12.99
2022-10-02T07:23:02.307Z,13.46
2022-10-02T07:25:54.537Z,13.66
2022-10-02T07:28:35.902Z,13.76
2022-10-02T07:31:14.477Z,13.68
2022-10-02T07:34:00.254Z,13.70
2022-10-02T07:36:39.156Z,13.70
2022-10-02T07:39:24.035Z,13.82
2022-10-02T07:41:56.542Z,14.06
2022-10-02T07:44:22.908Z,13.93
2022-10-02T07:47:09.566Z,13.97
2022-10-02T07:49:56.865Z,14.04
2022-10-02T07:52:41.932Z,14.00
2022-10-02T07:55:17.439Z,14.16
2022-10-02T07:58:09.398Z,13.85
2022-10-02T08:00:42.889Z,14.07
2022-10-02T08:03:24.236Z,14.21
2022-10-02T08:05:56.134Z,14.35
2022-10-02T08:08:31.421Z,14.33
2022-10-02T08:11:36.349Z,14.26
2022-10-02T08:14:09.763Z,14.31
2022-10-02T08:16:45.485Z,14.29
2022-10-02T08:19:19.044Z,14.33
2022-10-02T08:21:54.138Z,14.30
2022-10-02T08:24:26.410Z,14.21
2022-10-02T08:26:57.964Z,13.94
2022-10-02T08:29:35.095Z,13.62
2022-10-02T08:32:01.755Z,14.31
2022-10-02T08:34:28.191Z,14.01
2022-10-02T08:37:32.100Z,14.47
2022-10-02T08:40:23.017Z,14.64
2022-10-02T08:43:07.570Z,14.91
2022-10-02T08:46:00.326Z,14.60
2022-10-02T08:48:54.108Z,14.74
2022-10-02T08:51:35.750Z,14.86
2022-10-02T08:54:53.504Z,15.44
2022-10-02T08:57:37.991Z,15.15
2022-10-02T09:00:30.596Z,15.23
2022-10-02T09:03:02.774Z,15.71
2022-10-02T09:05:56.456Z,15.17
2022-10-02T09:08:44.278Z,15.74
2022-10-02T09:11:25.867Z,15.69
2022-10-02T09:14:29.748Z,15.53
2022-10-02T09:17:16.260Z,15.62
2022-10-02T09:20:27.449Z,15.85
2022-10-02T09:23:18.437Z,17.03
2022-10-02T09:26:03.196Z,16.76
2022-10-02T09:28:59.399Z,16.48
2022-10-02T09:31:40.879Z,16.61
2022-10-02T09:34:44.321Z,16.32
2022-10-02T09:37:13.585Z,16.63
2022-10-02T09:39:56.147Z,16.44
2022-10-02T09:42:25.159Z,17.48
2022-10-02T09:45:29.191Z,18.01
2022-10-02T09:48:40.148Z,18.43
2022-10-02T09:51:24.932Z,17.74
2022-10-02T09:54:07.007Z,17.52
2022-10-02T09:56:33.719Z,17.66
2022-10-02T09:59:12.083Z,17.58
2022-10-02T10:01:44.112Z,17.70
2022-10-02T10:04:37.966Z,16.66
2022-10-02T10:07:36.127Z,16.62
2022-10-02T10:10:11.527Z,16.66
2022-10-02T10:12:49.159Z,16.97
2022-10-02T10:15:49.593Z,16.56
2022-10-02T10:18:46.919Z,16.35
2022-10-02T10:21:48.139Z,16.35
2022-10-02T10:24:29.611Z,16.57
2022-10-02T10:27:23.803Z,16.67
2022-10-02T10:30:11.384Z,16.53
2022-10-02T10:32:53.424Z,16.36
2022-10-02T10:35:28.447Z,15.84
2022-10-02T10:38:23.179Z,16.06
2022-10-02T10:41:20.397Z,16.19
2022-10-02T10:44:23.972Z,16.00
2022-10-02T10:47:02.503Z,16.10
2022-10-02T10:49:34.760Z,16.18
2022-10-02T10:52:10.259Z,15.98
2022-10-02T10:55:07.898Z,15.74
2022-10-02T10:57:48.495Z,15.96
2022-10-02T11:00:24.782Z,15.63
2022-10-02T11:03:29.243Z,15.80
2022-10-02T11:06:13.786Z,15.88
2022-10-02T11:09:09.277Z,15.95
2022-10-02T11:12:19.563Z,16.45
2022-10-02T11:15:04.440Z,16.08
2022-10-02T11:17:53.791Z,16.53
2022-10-02T11:20:35.335Z,16.74
2022-10-02T11:23:13.892Z,16.94
2022-10-02T11:26:10.419Z,17.37
2022-10-02T11:29:04.495Z,17.34
2022-10-02T11:31:49.547Z,17.26
2022-10-02T11:34:31.310Z,17.23
2022-10-02T11:37:39.956Z,17.24
2022-10-02T11:40:18.636Z,17.50
2022-10-02T11:42:47.744Z,17.54
2022-10-02T11:45:37.053Z,17.31
2022-10-02T11:48:28.288Z,17.73
2022-10-02T11:51:12.757Z,17.48
2022-10-02T11:53:56.799Z,17.96
2022-10-02T11:56:34.998Z,18.23
2022-10-02T11:59:26.027Z,18.00
2022-10-02T12:02:02.192Z,17.84
2022-10-02T12:04:37.444Z,17.98
2022-10-02T12:07:03.855Z,17.20
2022-10-02T12:09:42.490Z,17.23
2022-10-02T12:12:33.659Z,16.87
2022-10-02T12:15:10.778Z,16.95
2022-10-02T12:17:39.812Z,16.92
2022-10-02T12:20:30.582Z,17.19
2022-10-02T12:23:05.976Z,17.17
2022-10-02T12:26:06.364Z,18.19
2022-10-02T12:28:53.375Z,17.66
2022-10-02T12:31:37.338Z,16.92
2022-10-02T12:34:13.251Z,16.91
2022-10-02T12:37:05.024Z,16.63
2022-10-02T12:39:49.367Z,16.61
2022-10-02T12:42:37.368Z,16.31
2022-10-02T12:45:38.752Z,16.19
2022-10-02T12:48:30.011Z,16.78
2022-10-02T12:51:30.274Z,16.89
2022-10-02T12:54:11.479Z,16.67
2022-10-02T12:56:52.817Z,17.02
2022-10-02T12:59:52.221Z,16.87
2022-10-02T13:02:43.150Z,17.04
2022-10-02T13:05:34.859Z,17.35
2022-10-02T13:08:18.525Z,17.21
2022-10-02T13:11:18.598Z,17.22
2022-10-02T13:14:08.475Z,17.34
2022-10-02T13:16:57.632Z,17.26
2022-10-02T13:19:33.390Z,17.59
2022-10-02T13:22:05.865Z,17.72
2022-10-02T13:24:56.545Z,18.02
2022-10-02T13:27:37.566Z,17.64
2022-10-02T13:30:20.449Z,18.16
2022-10-02T13:33:37.882Z,18.19
2022-10-02T13:36:40.776Z,19.50
2022-10-02T13:39:28.947Z,20.37
2022-10-02T13:42:03.819Z,21.07
2022-10-02T13:45:06.817Z,20.34
2022-10-02T13:47:47.149Z,20.66
2022-10-02T13:50:50.937Z,21.30
2022-10-02T13:53:51.613Z,21.45
2022-10-02T13:56:47.091Z,21.62
2022-10-02T13:59:44.792Z,21.40
2022-10-02T14:02:29.476Z,21.40
2022-10-02T14:05:05.545Z,21.35
2022-10-02T14:07:47.128Z,20.96
2022-10-02T14:10:25.575Z,19.98
2022-10-02T14:13:06.190Z,19.93
2022-10-02T14:15:54.470Z,18.51
2022-10-02T14:18:32.112Z,18.21
2022-10-02T14:21:32.550Z,18.25
2022-10-02T14:24:28.238Z,17.98
2022-10-02T14:27:18.367Z,18.25
2022-10-02T14:30:01.499Z,17.96
2022-10-02T14:33:01.998Z,17.78
2022-10-02T14:35:31.349Z,17.57
2022-10-02T14:38:36.779Z,17.32
2022-10-02T14:41:27.463Z,17.15
2022-10-02T14:44:10.883Z,17.52
2022-10-02T14:47:02.056Z,17.22
2022-10-02T14:50:13.147Z,16.97
2022-10-02T14:53:02.623Z,16.79
2022-10-02T14:56:06.158Z,16.70
2022-10-02T14:58:59.641Z,16.50
2022-10-02T15:01:26.327Z,16.71
2022-10-02T15:03:58.714Z,16.54
2022-10-02T15:06:46.167Z,16.66
2022-10-02T15:09:18.322Z,16.70
2022-10-02T15:11:59.607Z,16.63
2022-10-02T15:14:57.098Z,16.15
2022-10-02T15:17:32.117Z,16.49
2022-10-02T15:20:33.641Z,16.43
2022-10-02T15:23:05.756Z,16.17
2022-10-02T15:25:56.731Z,16.53
2022-10-02T15:28:48.519Z,16.57
2022-10-02T15:31:17.665Z,16.28
2022-10-02T15:34:05.298Z,16.47
2022-10-02T15:36:49.843Z,16.67
2022-10-02T15:39:55.341Z,16.64
2022-10-02T15:42:46.891Z,16.38
2022-10-02T15:45:30.820Z,16.46
2022-10-02T15:48:29.803Z,16.39
2022-10-02T15:51:09.544Z,16.05
2022-10-02T15:53:41.732Z,16.64
2022-10-02T15:56:17.430Z,17.06
2022-10-02T15:59:00.314Z,16.44
2022-10-02T16:01:59.230Z,16.46
2022-10-02T16:04:37.891Z,16.24
2022-10-02T16:07:42.037Z,16.14
2022-10-02T16:10:37.489Z,15.95
2022-10-02T16:13:47.506Z,16.00
2022-10-02T16:16:38.296Z,15.77
2022-10-02T16:19:24.871Z,15.90
2022-10-02T16:22:13.236Z,15.82
2022-10-02T16:25:06.530Z,15.70
2022-10-02T16:28:07.680Z,15.25
2022-10-02T16:31:14.241Z,15.51
2022-10-02T16:33:49.562Z,15.54
2022-10-02T16:36:45.455Z,15.48
2022-10-02T16:39:28.274Z,15.52
2022-10-02T16:42:02.085Z,15.36
2022-10-02T16:44:40.632Z,15.32
2022-10-02T16:47:15.390Z,15.20
2022-10-02T16:49:50.905Z,14.82
2022-10-02T16:52:47.919Z,14.95
2022-10-02T16:55:45.067Z,14.95
2022-10-02T16:58:32.778Z,14.89
2022-10-02T17:01:07.287Z,14.81
2022-10-02T17:03:40.499Z,14.77
2022-10-02T17:06:18.760Z,14.43
2022-10-02T17:08:58.524Z,14.63
2022-10-02T17:11:51.056Z,14.54
2022-10-02T17:14:25.127Z,14.44
2022-10-02T17:16:51.547Z,14.34
2022-10-02T17:19:44.651Z,14.29
2022-10-02T17:22:22.774Z,14.30
2022-10-02T17:25:24.632Z,14.23
2022-10-02T17:27:56.630Z,14.15
2022-10-02T17:30:25.790Z,14.05
2022-10-02T17:33:17.350Z,13.87
2022-10-02T17:35:46.770Z,14.11
2022-10-02T17:38:22.716Z,14.01
2022-10-02T17:41:11.117Z,13.97
2022-10-02T17:44:13.050Z,13.85
2022-10-02T17:46:58.440Z,13.77
2022-10-02T17:49:33.615Z,13.34
2022-10-02T17:52:21.891Z,13.65
2022-10-02T17:55:04.381Z,13.52
2022-10-02T17:57:33.808Z,13.35
2022-10-02T18:00:12.672Z,13.30
2022-10-02T18:02:57.909Z,13.37
2022-10-02T18:05:49.137Z,13.20
2022-10-02T18:08:30.460Z,13.00
2022-10-02T18:11:03.908Z,13.34
2022-10-02T18:13:39.898Z,13.25
2022-10-02T18:16:40.096Z,13.17
2022-10-02T18:19:13.755Z,13.01
2022-10-02T18:21:46.250Z,13.16
2022-10-02T18:24:45.945Z,13.13
2022-10-02T18:27:22.262Z,12.69
2022-10-02T18:30:13.495Z,12.88
2022-10-02T18:32:51.813Z,13.05
2022-10-02T18:35:27.052Z,12.98
2022-10-02T18:38:11.848Z,12.80
2022-10-02T18:40:50.506Z,12.76
2022-10-02T18:43:50.544Z,12.69
2022-10-02T18:46:32.385Z,12.37
2022-10-02T18:49:06.364Z,12.46
2022-10-02T18:51:44.889Z,12.14
2022-10-02T18:54:34.226Z,11.79
2022-10-02T18:57:21.575Z,11.53
2022-10-02T19:00:16.057Z,12.12
2022-10-02T19:03:15.879Z,12.04
2022-10-02T19:06:22.494Z,12.09
2022-10-02T19:09:08.213Z,11.93
2022-10-02T19:11:47.146Z,11.68
2022-10-02T19:14:16.837Z,11.55
2022-10-02T19:16:57.637Z,11.31
2022-10-02T19:19:25.931Z,11.15
2022-10-02T19:21:58.531Z,11.09
2022-10-02T19:24:31.209Z,11.55
2022-10-02T19:27:02.270Z,11.40
2022-10-02T19:29:41.771Z,11.45
2022-10-02T19:32:24.460Z,11.89
2022-10-02T19:34:59.634Z,11.36
2022-10-02T19:37:26.085Z,11.54
2022-10-02T19:39:59.057Z,11.43
2022-10-02T19:42:28.678Z,11.02
2022-10-02T19:45:28.667Z,11.27
2022-10-02T19:48:02.459Z,11.13
2022-10-02T19:50:49.786Z,11.20
2022-10-02T19:53:23.383Z,11.25
2022-10-02T19:56:04.597Z,11.22
2022-10-02T19:58:48.460Z,11.57
2022-10-02T20:01:42.299Z,11.45
2022-10-02T20:04:16.721Z,11.42
2022-10-02T20:06:44.606Z,11.51
2022-10-02T20:09:24.221Z,11.17
2022-10-02T20:11:58.176Z,11.27
2022-10-02T20:14:38.591Z,10.94
2022-10-02T20:17:05.088Z,11.32
2022-10-02T20:19:35.907Z,11.27
2022-10-02T20:22:11.054Z,10.59
2022-10-02T20:24:51.272Z,10.33
2022-10-02T20:27:32.900Z,10.92
2022-10-02T20:30:11.195Z,10.86
2022-10-02T20:32:42.252Z,10.89
2022-10-02T20:35:17.870Z,10.89
2022-10-02T20:37:47.962Z,10.88
2022-10-02T20:40:25.653Z,10.82
2022-10-02T20:43:04.698Z,10.88
2022-10-02T20:45:40.211Z,10.83
2022-10-02T20:48:55.967Z,10.77
2022-10-02T20:52:07.927Z,10.54
2022-10-02T20:54:57.550Z,10.27
2022-10-02T20:58:02.057Z,10.57
2022-10-02T21:00:42.899Z,10.40
2022-10-02T21:03:55.870Z,10.59
2022-10-02T21:06:30.382Z,10.22
2022-10-02T21:09:21.808Z,10.53
2022-10-02T21:12:15.963Z,10.46
2022-10-02T21:14:57.340Z,10.22
2022-10-02T21:17:42.503Z,10.18
2022-10-02T21:20:49.650Z,9.73
2022-10-02T21:23:30.320Z,9.73
2022-10-02T21:26:21.081Z,10.17
2022-10-02T21:29:17.186Z,10.15
2022-10-02T21:31:52.487Z,10.18
2022-10-02T21:34:26.288Z,10.29
2022-10-02T21:37:01.899Z,10.12
2022-10-02T21:39:49.985Z,10.13
2022-10-02T21:42:38.158Z,10.23
2022-10-02T21:45:41.119Z,10.36
2022-10-02T21:48:29.385Z,10.07
2022-10-02T21:51:33.368Z,9.83
2022-10-02T21:54:21.466Z,9.74
2022-10-02T21:56:53.840Z,9.75
2022-10-02T21:59:50.142Z,9.60
2022-10-02T22:02:22.681Z,9.69
2022-10-02T22:05:20.195Z,9.49
2022-10-02T22:08:04.449Z,9.41
2022-10-02T22:11:15.058Z,9.93
2022-10-02T22:13:43.071Z,10.17
2022-10-02T22:16:28.102Z,10.35
2022-10-02T22:19:23.437Z,10.15
2022-10-02T22:22:31.276Z,9.85
2022-10-02T22:25:17.141Z,9.36
2022-10-02T22:28:31.379Z,9.67
2022-10-02T22:30:57.920Z,9.65
2022-10-02T22:33:50.249Z,9.48
2022-10-02T22:37:03.966Z,9.54
2022-10-02T22:39:44.673Z,9.40
2022-10-02T22:42:24.334Z,9.12
2022-10-02T22:44:56.065Z,9.34
2022-10-02T22:47:33.924Z,9.29
2022-10-02T22:50:07.544Z,9.37
2022-10-02T22:52:53.141Z,9.30
2022-10-02T22:55:24.963Z,9.08
2022-10-02T22:58:12.119Z,9.45
2022-10-02T23:01:06.671Z,9.40
2022-10-02T23:03:49.475Z,9.33
2022-10-02T23:06:30.578Z,9.20
2022-10-02T23:09:12.054Z,9.23
2022-10-02T23:11:38.602Z,9.33
2022-10-02T23:14:17.402Z,9.38
2022-10-02T23:16:53.895Z,9.24
2022-10-02T23:19:43.446Z,9.28
2022-10-02T23:22:24.759Z,9.00
2022-10-02T23:25:13.867Z,9.22
2022-10-02T23:27:54.193Z,8.92
2022-10-02T23:30:22.122Z,8.91
2022-10-02T23:33:30.397Z,9.05
2022-10-02T23:36:02.848Z,9.18
2022-10-02T23:38:45.660Z,9.25
2022-10-02T23:41:26.501Z,8.79
2022-10-02T23:44:18.939Z,9.00
2022-10-02T23:46:48.131Z,8.89
2022-10-02T23:49:18.517Z,8.66
2022-10-02T23:51:55.609Z,9.08
2022-10-02T23:54:34.065Z,9.17
2022-10-02T23:57:21.987Z,9.23
